Elger Bay, Washington
Current Conditions -  °F | °C
As of 9:55 AM on Thursday 23 Oct 2014 (Local Time) from KAWO Reporting Station
Overcast Overcast  
Wind Chill: 52°   Ceiling: 5000
Heat Index: 52°   Visibility: 10mi
Dew Point: 45°   Wind: 12mph
Humidity: 76%   Direction: 150°SSE
Pressure: 29.77"   Gusts: NA
Location:  48.2145°N, 122.297°W
Report Text: KAWO 231655Z AUTO 15010KT 10SM BKN050 OVC070 11/07 A2977 RMK AO1
Loading
Personal Weather Stations






























Interactive Weather Map New forecast layout! Learn more

10-Day Weather Forecast

Advertisements
Track Severe Weather on mobile